createdAt,value
2022-12-29T00:01:02.247Z,98487.22
2022-12-29T00:03:30.750Z,98489.98
2022-12-29T00:05:59.634Z,98488.21
2022-12-29T00:08:42.976Z,98488.75
2022-12-29T00:11:21.551Z,98490.52
2022-12-29T00:14:08.186Z,98484.17
2022-12-29T00:16:36.777Z,98484.85
2022-12-29T00:19:05.538Z,98481.58
2022-12-29T00:21:52.112Z,98482.35
2022-12-29T00:24:26.947Z,98482.72
2022-12-29T00:27:18.265Z,98485.21
2022-12-29T00:30:05.044Z,98490.18
2022-12-29T00:32:51.832Z,98487.26
2022-12-29T00:35:40.695Z,98485.30
2022-12-29T00:38:32.628Z,98488.71
2022-12-29T00:41:19.256Z,98486.06
2022-12-29T00:44:06.257Z,98486.82
2022-12-29T00:46:35.337Z,98491.16
2022-12-29T00:49:22.061Z,98492.16
2022-12-29T00:51:50.455Z,98489.17
2022-12-29T00:54:19.074Z,98486.31
2022-12-29T00:56:47.677Z,98488.95
2022-12-29T00:59:16.096Z,98491.04
2022-12-29T01:01:47.768Z,98485.59
2022-12-29T01:04:16.107Z,98484.98
2022-12-29T01:06:45.873Z,98486.55
2022-12-29T01:09:32.292Z,98488.03
2022-12-29T01:12:00.286Z,98480.52
2022-12-29T01:14:28.686Z,98474.52
2022-12-29T01:16:57.316Z,98472.44
2022-12-29T01:19:25.861Z,98471.42
2022-12-29T01:21:53.788Z,98474.09
2022-12-29T01:24:21.909Z,98473.70
2022-12-29T01:26:50.145Z,98472.25
2022-12-29T01:29:18.941Z,98470.38
2022-12-29T01:31:51.025Z,98470.69
2022-12-29T01:34:19.402Z,98467.27
2022-12-29T01:36:47.341Z,98466.45
2022-12-29T01:39:15.232Z,98465.23
2022-12-29T01:41:44.416Z,98462.06
2022-12-29T01:44:31.340Z,98460.60
2022-12-29T01:46:59.355Z,98456.78
2022-12-29T01:49:30.468Z,98454.66
2022-12-29T01:52:01.050Z,98452.31
2022-12-29T01:54:34.449Z,98450.67
2022-12-29T01:57:04.409Z,98450.20
2022-12-29T01:59:34.206Z,98448.46
2022-12-29T02:02:02.736Z,98448.05
2022-12-29T02:04:33.329Z,98443.38
2022-12-29T02:07:04.518Z,98442.52
2022-12-29T02:09:32.611Z,98437.15
2022-12-29T02:12:00.990Z,98437.38
2022-12-29T02:14:29.914Z,98441.20
2022-12-29T02:17:06.624Z,98434.41
2022-12-29T02:20:04.749Z,98429.92
2022-12-29T02:22:50.958Z,98430.41
2022-12-29T02:25:25.081Z,98428.59
2022-12-29T02:28:13.344Z,98430.66
2022-12-29T02:30:53.047Z,98430.77
2022-12-29T02:33:44.358Z,98431.88
2022-12-29T02:36:22.883Z,98431.19
2022-12-29T02:38:50.856Z,98433.17
2022-12-29T02:41:18.791Z,98434.24
2022-12-29T02:43:56.261Z,98431.05
2022-12-29T02:46:44.479Z,98431.11
2022-12-29T02:49:17.195Z,98426.59
2022-12-29T02:51:46.610Z,98429.92
2022-12-29T02:54:33.319Z,98430.30
2022-12-29T02:57:02.703Z,98428.10
2022-12-29T02:59:30.776Z,98423.04
2022-12-29T03:02:21.797Z,98422.96
2022-12-29T03:05:16.629Z,98426.64
2022-12-29T03:08:21.218Z,98432.36
2022-12-29T03:11:00.246Z,98436.75
2022-12-29T03:14:03.807Z,98437.98
2022-12-29T03:16:49.775Z,98441.41
2022-12-29T03:19:24.150Z,98438.59
2022-12-29T03:22:16.552Z,98445.76
2022-12-29T03:24:49.685Z,98445.48
2022-12-29T03:27:26.699Z,98443.98
2022-12-29T03:29:58.634Z,98443.60
2022-12-29T03:32:31.193Z,98441.20
2022-12-29T03:35:00.302Z,98442.54
2022-12-29T03:37:40.963Z,98443.44
2022-12-29T03:40:10.313Z,98442.91
2022-12-29T03:42:40.580Z,98446.95
2022-12-29T03:45:10.279Z,98446.42
2022-12-29T03:47:39.009Z,98447.34
2022-12-29T03:50:09.672Z,98449.02
2022-12-29T03:52:40.483Z,98450.54
2022-12-29T03:55:08.572Z,98451.22
2022-12-29T03:57:36.737Z,98449.49
2022-12-29T04:00:08.518Z,98449.14
2022-12-29T04:02:47.573Z,98445.36
2022-12-29T04:05:20.945Z,98445.30
2022-12-29T04:07:51.143Z,98441.42
2022-12-29T04:10:19.275Z,98441.27
2022-12-29T04:12:49.669Z,98441.48
2022-12-29T04:15:17.617Z,98451.30
2022-12-29T04:17:46.614Z,98449.46
2022-12-29T04:20:33.242Z,98448.63
2022-12-29T04:23:07.554Z,98444.85
2022-12-29T04:25:37.144Z,98445.54
2022-12-29T04:28:05.346Z,98442.36
2022-12-29T04:30:39.009Z,98439.88
2022-12-29T04:33:32.925Z,98432.55
2022-12-29T04:36:00.969Z,98435.05
2022-12-29T04:38:29.461Z,98435.69
2022-12-29T04:41:00.312Z,98435.97
2022-12-29T04:43:29.138Z,98440.98
2022-12-29T04:46:17.527Z,98443.31
2022-12-29T04:49:05.704Z,98438.30
2022-12-29T04:51:51.803Z,98431.81
2022-12-29T04:54:20.042Z,98425.49
2022-12-29T04:56:56.438Z,98427.27
2022-12-29T04:59:25.661Z,98429.88
2022-12-29T05:01:57.614Z,98431.60
2022-12-29T05:04:25.819Z,98429.95
2022-12-29T05:06:54.057Z,98426.15
2022-12-29T05:09:22.201Z,98428.20
2022-12-29T05:11:50.501Z,98421.61
2022-12-29T05:14:18.719Z,98422.93
2022-12-29T05:16:47.612Z,98425.14
2022-12-29T05:19:15.636Z,98431.55
2022-12-29T05:21:44.887Z,98432.96
2022-12-29T05:24:13.785Z,98439.49
2022-12-29T05:26:43.049Z,98444.40
2022-12-29T05:29:40.227Z,98440.59
2022-12-29T05:32:09.800Z,98445.73
2022-12-29T05:34:37.987Z,98445.28
2022-12-29T05:37:06.681Z,98451.14
2022-12-29T05:39:34.818Z,98451.80
2022-12-29T05:42:05.542Z,98454.17
2022-12-29T05:44:56.617Z,98453.33
2022-12-29T05:47:32.837Z,98454.06
2022-12-29T05:50:19.872Z,98446.53
2022-12-29T05:53:09.937Z,98441.54
2022-12-29T05:55:43.402Z,98449.98
2022-12-29T05:58:15.700Z,98452.13
2022-12-29T06:00:43.808Z,98454.41
2022-12-29T06:03:12.868Z,98460.39
2022-12-29T06:05:40.993Z,98462.05
2022-12-29T06:08:09.077Z,98464.40
2022-12-29T06:10:36.974Z,98465.27
2022-12-29T06:13:07.294Z,98474.15
2022-12-29T06:15:39.228Z,98481.19
2022-12-29T06:18:13.736Z,98485.00
2022-12-29T06:20:47.521Z,98496.39
2022-12-29T06:23:17.605Z,98500.09
2022-12-29T06:25:46.154Z,98507.54
2022-12-29T06:28:14.085Z,98507.61
2022-12-29T06:30:44.095Z,98508.74
2022-12-29T06:33:12.552Z,98511.00
2022-12-29T06:35:40.511Z,98508.73
2022-12-29T06:38:08.615Z,98509.42
2022-12-29T06:40:36.683Z,98511.36
2022-12-29T06:43:39.424Z,98509.15
2022-12-29T06:46:21.102Z,98506.29
2022-12-29T06:48:49.122Z,98509.08
2022-12-29T06:51:17.219Z,98510.17
2022-12-29T06:53:45.479Z,98510.03
2022-12-29T06:56:13.516Z,98510.67
2022-12-29T06:58:41.656Z,98506.77
2022-12-29T07:01:09.773Z,98504.83
2022-12-29T07:03:38.247Z,98500.88
2022-12-29T07:06:07.106Z,98503.25
2022-12-29T07:08:35.000Z,98511.23
2022-12-29T07:11:02.966Z,98507.80
2022-12-29T07:13:31.045Z,98498.16
2022-12-29T07:15:58.916Z,98495.27
2022-12-29T07:18:26.916Z,98495.95
2022-12-29T07:20:54.859Z,98500.64
2022-12-29T07:23:22.815Z,98495.70
2022-12-29T07:25:50.757Z,98495.24
2022-12-29T07:28:18.642Z,98496.34
2022-12-29T07:30:47.143Z,98498.04
2022-12-29T07:33:14.907Z,98494.30
2022-12-29T07:35:42.997Z,98496.63
2022-12-29T07:38:10.833Z,98492.23
2022-12-29T07:40:38.794Z,98488.02
2022-12-29T07:43:06.601Z,98486.80
2022-12-29T07:45:41.041Z,98488.63
2022-12-29T07:48:12.073Z,98483.79
2022-12-29T07:50:40.387Z,98479.61
2022-12-29T07:53:08.630Z,98481.77
2022-12-29T07:55:36.774Z,98487.67
2022-12-29T07:58:04.724Z,98485.83
2022-12-29T08:00:32.680Z,98479.93
2022-12-29T08:03:00.988Z,98475.58
2022-12-29T08:05:29.858Z,98468.40
2022-12-29T08:07:58.106Z,98467.44
2022-12-29T08:10:26.423Z,98466.63
2022-12-29T08:12:54.539Z,98465.45
2022-12-29T08:15:28.607Z,98466.98
2022-12-29T08:18:00.522Z,98464.90
2022-12-29T08:20:28.600Z,98461.55
2022-12-29T08:22:57.008Z,98460.36
2022-12-29T08:25:25.503Z,98460.17
2022-12-29T08:27:54.405Z,98454.30
2022-12-29T08:30:22.765Z,98452.02
2022-12-29T08:32:51.276Z,98457.88
2022-12-29T08:35:19.651Z,98459.83
2022-12-29T08:37:47.724Z,98458.55
2022-12-29T08:40:15.825Z,98458.15
2022-12-29T08:42:44.837Z,98456.73
2022-12-29T08:45:12.783Z,98450.80
2022-12-29T08:47:41.154Z,98447.27
2022-12-29T08:50:09.402Z,98447.48
2022-12-29T08:52:37.565Z,98453.67
2022-12-29T08:55:05.671Z,98454.95
2022-12-29T08:57:34.168Z,98449.11
2022-12-29T09:00:18.447Z,98445.80
2022-12-29T09:02:46.772Z,98441.16
2022-12-29T09:05:15.246Z,98439.54
2022-12-29T09:07:43.671Z,98433.17
2022-12-29T09:10:11.953Z,98429.06
2022-12-29T09:12:40.104Z,98416.86
2022-12-29T09:15:09.521Z,98411.28
2022-12-29T09:17:44.662Z,98413.67
2022-12-29T09:20:19.929Z,98411.17
2022-12-29T09:22:48.601Z,98405.80
2022-12-29T09:25:17.455Z,98398.17
2022-12-29T09:27:45.460Z,98394.45
2022-12-29T09:30:15.527Z,98395.34
2022-12-29T09:32:45.885Z,98397.72
2022-12-29T09:35:16.140Z,98397.63
2022-12-29T09:37:44.921Z,98396.23
2022-12-29T09:40:33.185Z,98393.14
2022-12-29T09:43:13.719Z,98386.79
2022-12-29T09:45:44.930Z,98383.13
2022-12-29T09:50:21.869Z,98367.67
2022-12-29T09:53:23.813Z,98368.05
2022-12-29T09:55:56.873Z,98365.46
2022-12-29T09:58:36.270Z,98366.02
2022-12-29T10:01:17.698Z,98363.98
2022-12-29T10:03:50.592Z,98366.70
2022-12-29T10:07:27.479Z,98364.16
2022-12-29T10:09:42.448Z,98364.88
2022-12-29T10:12:31.769Z,98369.73
2022-12-29T10:15:14.974Z,98370.20
2022-12-29T10:17:58.385Z,98368.55
2022-12-29T10:20:56.377Z,98366.66
2022-12-29T10:23:42.328Z,98365.05
2022-12-29T10:26:18.942Z,98364.89
2022-12-29T10:28:53.687Z,98368.72
2022-12-29T10:31:25.473Z,98366.92
2022-12-29T10:34:04.749Z,98370.98
2022-12-29T10:36:39.843Z,98369.92
2022-12-29T10:39:27.937Z,98362.70
2022-12-29T10:42:12.766Z,98363.08
2022-12-29T10:44:41.424Z,98359.56
2022-12-29T10:47:20.168Z,98354.88
2022-12-29T10:49:50.670Z,98348.98
2022-12-29T10:52:22.348Z,98344.27
2022-12-29T10:54:59.638Z,98335.39
2022-12-29T10:57:37.720Z,98341.00
2022-12-29T11:00:18.846Z,98340.63
2022-12-29T11:03:08.805Z,98334.90
2022-12-29T11:05:59.138Z,98328.92
2022-12-29T11:08:32.501Z,98334.73
2022-12-29T11:11:09.662Z,98330.94
2022-12-29T11:13:50.545Z,98326.10
2022-12-29T11:16:35.245Z,98321.36
2022-12-29T11:19:04.991Z,98305.69
2022-12-29T11:21:43.531Z,98302.02
2022-12-29T11:24:30.452Z,98299.38
2022-12-29T11:27:23.888Z,98303.92
2022-12-29T11:29:55.322Z,98300.42
2022-12-29T11:32:30.833Z,98294.91
2022-12-29T11:35:00.281Z,98292.42
2022-12-29T11:37:33.011Z,98293.18
2022-12-29T11:40:02.509Z,98291.73
2022-12-29T11:43:06.597Z,98286.15
2022-12-29T11:45:38.379Z,98280.08
2022-12-29T11:48:22.232Z,98275.98
2022-12-29T11:50:56.831Z,98276.23
2022-12-29T11:53:26.613Z,98273.31
2022-12-29T11:56:07.192Z,98269.86
2022-12-29T11:58:38.617Z,98271.23
2022-12-29T12:01:39.049Z,98272.47
2022-12-29T12:04:20.024Z,98273.40
2022-12-29T12:07:05.369Z,98276.86
2022-12-29T12:09:41.595Z,98275.83
2022-12-29T12:12:26.030Z,98269.44
2022-12-29T12:15:00.738Z,98263.93
2022-12-29T12:17:46.447Z,98257.19
2022-12-29T12:20:37.987Z,98253.63
2022-12-29T12:23:37.297Z,98252.59
2022-12-29T12:26:22.758Z,98244.77
2022-12-29T12:29:07.315Z,98242.17
2022-12-29T12:31:52.692Z,98240.44
2022-12-29T12:34:30.803Z,98233.23
2022-12-29T12:37:03.907Z,98229.21
2022-12-29T12:39:48.397Z,98232.85
2022-12-29T12:42:19.533Z,98228.14
2022-12-29T12:45:18.677Z,98228.70
2022-12-29T12:48:02.693Z,98227.91
2022-12-29T12:50:43.635Z,98230.13
2022-12-29T12:53:35.259Z,98228.23
2022-12-29T12:56:42.213Z,98228.36
2022-12-29T12:59:21.259Z,98229.34
2022-12-29T13:02:13.621Z,98234.13
2022-12-29T13:04:45.258Z,98234.41
2022-12-29T13:07:32.433Z,98234.32
2022-12-29T13:10:19.007Z,98236.02
2022-12-29T13:12:53.470Z,98237.75
2022-12-29T13:15:47.043Z,98242.60
2022-12-29T13:18:15.568Z,98243.65
2022-12-29T13:21:23.402Z,98241.90
2022-12-29T13:24:04.870Z,98244.66
2022-12-29T13:26:56.200Z,98249.66
2022-12-29T13:29:41.986Z,98249.05
2022-12-29T13:32:46.244Z,98244.64
2022-12-29T13:35:40.039Z,98237.98
2022-12-29T13:38:24.316Z,98237.76
2022-12-29T13:41:06.154Z,98242.32
2022-12-29T13:43:38.256Z,98237.35
2022-12-29T13:46:13.670Z,98237.00
2022-12-29T13:48:52.308Z,98233.14
2022-12-29T13:51:27.771Z,98241.02
2022-12-29T13:54:01.950Z,98244.42
2022-12-29T13:56:52.507Z,98245.52
2022-12-29T13:59:33.300Z,98247.73
2022-12-29T14:02:12.515Z,98249.30
2022-12-29T14:04:57.458Z,98250.85
2022-12-29T14:07:26.877Z,98249.27
2022-12-29T14:09:58.488Z,98246.77
2022-12-29T14:12:39.281Z,98251.37
2022-12-29T14:15:10.554Z,98245.77
2022-12-29T14:18:21.703Z,98242.22
2022-12-29T14:20:55.407Z,98245.91
2022-12-29T14:23:35.929Z,98245.64
2022-12-29T14:26:07.432Z,98244.80
2022-12-29T14:28:40.138Z,98245.86
2022-12-29T14:31:20.578Z,98245.39
2022-12-29T14:34:07.172Z,98247.75
2022-12-29T14:36:41.260Z,98246.81
2022-12-29T14:39:45.413Z,98240.90
2022-12-29T14:42:18.877Z,98239.82
2022-12-29T14:44:54.438Z,98230.60
2022-12-29T14:47:33.018Z,98228.31
2022-12-29T14:50:16.656Z,98231.02
2022-12-29T14:53:00.317Z,98233.85
2022-12-29T14:55:51.087Z,98234.04
2022-12-29T14:58:29.250Z,98235.77
2022-12-29T15:00:59.163Z,98237.67
2022-12-29T15:03:37.538Z,98235.23
2022-12-29T15:06:14.901Z,98229.98
2022-12-29T15:09:00.549Z,98227.69
2022-12-29T15:11:37.878Z,98228.89
2022-12-29T15:14:33.945Z,98225.96
2022-12-29T15:17:03.245Z,98218.02
2022-12-29T15:19:32.126Z,98217.33
2022-12-29T15:22:01.925Z,98220.82
2022-12-29T15:24:30.526Z,98219.64
2022-12-29T15:27:05.070Z,98212.67
2022-12-29T15:29:46.914Z,98218.79
2022-12-29T15:32:25.709Z,98222.66
2022-12-29T15:34:57.104Z,98225.32
2022-12-29T15:37:28.212Z,98224.36
2022-12-29T15:39:57.256Z,98222.02
2022-12-29T15:42:36.329Z,98218.83
2022-12-29T15:45:11.398Z,98218.48
2022-12-29T15:47:42.422Z,98222.64
2022-12-29T15:50:35.236Z,98224.77
2022-12-29T15:53:04.723Z,98226.52
2022-12-29T15:55:39.527Z,98224.13
2022-12-29T15:58:23.674Z,98226.70
2022-12-29T16:00:55.595Z,98235.25
2022-12-29T16:03:26.934Z,98234.89
2022-12-29T16:06:26.401Z,98237.90
2022-12-29T16:09:19.215Z,98235.13
2022-12-29T16:11:52.122Z,98240.56
2022-12-29T16:14:31.026Z,98243.64
2022-12-29T16:17:03.150Z,98237.73
2022-12-29T16:19:38.245Z,98238.74
2022-12-29T16:22:22.695Z,98237.36
2022-12-29T16:24:51.040Z,98242.23
2022-12-29T16:27:39.079Z,98245.96
2022-12-29T16:30:25.389Z,98244.39
2022-12-29T16:33:00.220Z,98244.19
2022-12-29T16:35:31.260Z,98243.13
2022-12-29T16:38:22.672Z,98247.91
2022-12-29T16:40:56.589Z,98247.54
2022-12-29T16:43:27.561Z,98234.61
2022-12-29T16:46:01.739Z,98235.08
2022-12-29T16:48:57.727Z,98231.41
2022-12-29T16:51:35.521Z,98233.88
2022-12-29T16:54:05.244Z,98235.15
2022-12-29T16:56:37.414Z,98236.20
2022-12-29T16:59:32.954Z,98234.17
2022-12-29T17:02:08.585Z,98232.77
2022-12-29T17:04:37.078Z,98230.97
2022-12-29T17:07:19.698Z,98224.20
2022-12-29T17:09:48.182Z,98223.23
2022-12-29T17:12:19.690Z,98225.42
2022-12-29T17:14:48.360Z,98226.39
2022-12-29T17:17:36.591Z,98223.40
2022-12-29T17:20:16.720Z,98219.45
2022-12-29T17:22:46.066Z,98211.67
2022-12-29T17:25:20.672Z,98200.10
2022-12-29T17:27:54.040Z,98200.65
2022-12-29T17:30:29.666Z,98205.63
2022-12-29T17:33:06.479Z,98214.14
2022-12-29T17:35:35.099Z,98211.83
2022-12-29T17:38:03.309Z,98201.61
2022-12-29T17:40:34.370Z,98197.73
2022-12-29T17:43:02.468Z,98201.60
2022-12-29T17:45:32.683Z,98204.23
2022-12-29T17:48:02.120Z,98200.27
2022-12-29T17:50:31.687Z,98190.41
2022-12-29T17:53:05.625Z,98188.14
2022-12-29T17:55:37.996Z,98197.19
2022-12-29T17:58:21.314Z,98206.15
2022-12-29T18:00:52.604Z,98192.11
2022-12-29T18:03:36.536Z,98193.48
2022-12-29T18:06:08.676Z,98192.04
2022-12-29T18:08:38.964Z,98191.48
2022-12-29T18:11:22.309Z,98187.34
2022-12-29T18:13:51.315Z,98174.39
2022-12-29T18:16:23.477Z,98180.02
2022-12-29T18:18:51.958Z,98187.58
2022-12-29T18:21:22.306Z,98187.09
2022-12-29T18:23:51.031Z,98194.23
2022-12-29T18:26:28.095Z,98195.16
2022-12-29T18:28:58.108Z,98193.85
2022-12-29T18:31:29.274Z,98195.00
2022-12-29T18:33:58.938Z,98197.86
2022-12-29T18:36:29.170Z,98204.08
2022-12-29T18:38:57.380Z,98203.72
2022-12-29T18:41:30.944Z,98195.85
2022-12-29T18:44:00.171Z,98197.78
2022-12-29T18:46:28.897Z,98201.82
2022-12-29T18:48:57.215Z,98199.34
2022-12-29T18:51:26.397Z,98195.89
2022-12-29T18:53:55.011Z,98191.77
2022-12-29T18:56:24.429Z,98179.58
2022-12-29T18:58:53.755Z,98169.77
2022-12-29T19:01:28.027Z,98169.59
2022-12-29T19:03:56.823Z,98172.20
2022-12-29T19:06:24.934Z,98178.27
2022-12-29T19:08:53.268Z,98181.21
2022-12-29T19:11:21.487Z,98181.09
2022-12-29T19:13:49.908Z,98173.70
2022-12-29T19:16:21.738Z,98162.85
2022-12-29T19:19:07.880Z,98161.48
2022-12-29T19:21:37.766Z,98158.09
2022-12-29T19:24:07.169Z,98162.48
2022-12-29T19:26:38.230Z,98152.58
2022-12-29T19:29:11.646Z,98151.98
2022-12-29T19:31:40.043Z,98154.97
2022-12-29T19:34:08.249Z,98163.14
2022-12-29T19:36:36.405Z,98163.19
2022-12-29T19:39:04.624Z,98165.84
2022-12-29T19:41:33.208Z,98162.59
2022-12-29T19:44:01.493Z,98154.70
2022-12-29T19:46:29.694Z,98159.58
2022-12-29T19:48:59.202Z,98160.29
2022-12-29T19:51:27.897Z,98164.42
2022-12-29T19:53:56.051Z,98162.67
2022-12-29T19:56:24.184Z,98158.84
2022-12-29T19:58:52.393Z,98155.39
2022-12-29T20:01:23.093Z,98147.08
2022-12-29T20:03:52.444Z,98144.09
2022-12-29T20:06:21.012Z,98130.75
2022-12-29T20:08:49.160Z,98122.17
2022-12-29T20:11:18.757Z,98127.02
2022-12-29T20:13:48.008Z,98128.55
2022-12-29T20:16:19.078Z,98129.18
2022-12-29T20:18:48.725Z,98134.02
2022-12-29T20:21:20.010Z,98135.20
2022-12-29T20:23:49.195Z,98126.91
2022-12-29T20:26:20.308Z,98124.38
2022-12-29T20:28:49.425Z,98122.30
2022-12-29T20:31:23.488Z,98117.44
2022-12-29T20:33:52.481Z,98121.45
2022-12-29T20:36:27.266Z,98121.05
2022-12-29T20:38:56.990Z,98120.52
2022-12-29T20:41:25.493Z,98121.56
2022-12-29T20:43:54.432Z,98119.52
2022-12-29T20:46:28.028Z,98118.35
2022-12-29T20:49:00.992Z,98115.97
2022-12-29T20:51:55.291Z,98110.25
2022-12-29T20:54:19.630Z,98107.52
2022-12-29T20:56:48.836Z,98114.26
2022-12-29T20:59:27.473Z,98118.52
2022-12-29T21:01:58.086Z,98116.73
2022-12-29T21:04:26.699Z,98114.54
2022-12-29T21:06:54.997Z,98122.61
2022-12-29T21:09:22.981Z,98123.78
2022-12-29T21:11:51.378Z,98124.80
2022-12-29T21:14:19.349Z,98129.66
2022-12-29T21:16:47.767Z,98124.52
2022-12-29T21:19:16.297Z,98119.52
2022-12-29T21:21:44.400Z,98120.25
2022-12-29T21:24:12.637Z,98127.19
2022-12-29T21:26:40.614Z,98132.36
2022-12-29T21:29:08.666Z,98130.14
2022-12-29T21:31:37.147Z,98126.67
2022-12-29T21:34:06.659Z,98121.31
2022-12-29T21:36:34.851Z,98121.78
2022-12-29T21:39:03.720Z,98114.48
2022-12-29T21:41:32.528Z,98109.98
2022-12-29T21:44:19.551Z,98099.58
2022-12-29T21:46:50.506Z,98096.29
2022-12-29T21:49:18.551Z,98088.50
2022-12-29T21:51:54.346Z,98078.45
2022-12-29T21:54:47.059Z,98080.66
2022-12-29T21:57:46.858Z,98081.98
2022-12-29T22:00:34.480Z,98089.91
2022-12-29T22:03:23.699Z,98092.14
2022-12-29T22:06:11.171Z,98090.95
2022-12-29T22:08:59.004Z,98085.73
2022-12-29T22:11:46.236Z,98086.14
2022-12-29T22:14:14.351Z,98084.33
2022-12-29T22:16:42.442Z,98080.69
2022-12-29T22:19:11.187Z,98083.94
2022-12-29T22:21:40.402Z,98090.14
2022-12-29T22:24:12.369Z,98088.06
2022-12-29T22:26:41.287Z,98079.98
2022-12-29T22:29:13.044Z,98070.70
2022-12-29T22:31:44.777Z,98090.39
2022-12-29T22:34:14.851Z,98090.05
2022-12-29T22:36:42.937Z,98081.64
2022-12-29T22:39:11.118Z,98084.25
2022-12-29T22:41:39.176Z,98082.16
2022-12-29T22:44:07.188Z,98083.43
2022-12-29T22:46:35.336Z,98081.59
2022-12-29T22:49:03.343Z,98076.80
2022-12-29T22:51:31.424Z,98077.90
2022-12-29T22:53:59.532Z,98070.07
2022-12-29T22:56:27.561Z,98072.61
2022-12-29T22:58:55.887Z,98075.17
2022-12-29T23:01:24.264Z,98078.99
2022-12-29T23:03:52.918Z,98082.96
2022-12-29T23:06:21.461Z,98081.09
2022-12-29T23:08:49.466Z,98080.28
2022-12-29T23:11:17.436Z,98076.56
2022-12-29T23:13:46.300Z,98075.24
2022-12-29T23:16:15.973Z,98079.81
2022-12-29T23:18:47.032Z,98075.25
2022-12-29T23:21:20.029Z,98066.17
2022-12-29T23:23:53.965Z,98071.39
2022-12-29T23:26:28.956Z,98062.45
2022-12-29T23:29:00.774Z,98066.44
2022-12-29T23:31:30.261Z,98074.55
2022-12-29T23:33:59.862Z,98072.98
2022-12-29T23:36:29.156Z,98077.28
2022-12-29T23:38:57.596Z,98076.73
2022-12-29T23:41:26.750Z,98069.51
2022-12-29T23:43:55.178Z,98077.45
2022-12-29T23:46:28.801Z,98078.47
2022-12-29T23:48:57.071Z,98074.48
2022-12-29T23:51:25.335Z,98076.00
2022-12-29T23:53:53.511Z,98073.87
2022-12-29T23:56:23.779Z,98070.20
2022-12-29T23:58:52.649Z,98072.61
